createdAt,value
2023-04-14T00:01:44.729Z,358.70
2023-04-14T00:04:11.948Z,355.33
2023-04-14T00:06:38.414Z,350.92
2023-04-14T00:09:04.742Z,349.92
2023-04-14T00:11:31.169Z,341.05
2023-04-14T00:13:57.912Z,336.65
2023-04-14T00:16:24.440Z,336.38
2023-04-14T00:18:50.949Z,332.75
2023-04-14T00:21:17.486Z,324.33
2023-04-14T00:23:43.856Z,320.27
2023-04-14T00:26:10.276Z,318.98
2023-04-14T00:28:36.575Z,317.65
2023-04-14T00:31:03.614Z,311.20
2023-04-14T00:33:30.004Z,302.60
2023-04-14T00:35:56.416Z,308.00
2023-04-14T00:38:23.205Z,303.30
2023-04-14T00:40:49.527Z,297.67
2023-04-14T00:43:16.535Z,301.10
2023-04-14T00:45:43.493Z,297.52
2023-04-14T00:48:10.166Z,289.02
2023-04-14T00:50:36.601Z,280.63
2023-04-14T00:53:03.149Z,281.13
2023-04-14T00:55:29.546Z,275.80
2023-04-14T00:57:56.145Z,274.40
2023-04-14T01:00:22.655Z,277.70
2023-04-14T01:02:50.756Z,270.85
2023-04-14T01:05:17.473Z,267.33
2023-04-14T01:07:44.121Z,253.02
2023-04-14T01:10:10.533Z,257.58
2023-04-14T01:12:36.824Z,253.25
2023-04-14T01:15:03.298Z,256.92
2023-04-14T01:17:29.645Z,245.55
2023-04-14T01:19:56.073Z,244.20
2023-04-14T01:22:22.627Z,243.50
2023-04-14T01:24:49.035Z,234.70
2023-04-14T01:27:15.364Z,236.40
2023-04-14T01:29:41.743Z,234.55
2023-04-14T01:32:08.276Z,232.07
2023-04-14T01:34:34.866Z,228.35
2023-04-14T01:37:01.206Z,224.77
2023-04-14T01:39:27.633Z,217.98
2023-04-14T01:41:54.045Z,216.68
2023-04-14T01:44:20.398Z,217.05
2023-04-14T01:46:47.330Z,219.43
2023-04-14T01:49:14.298Z,210.93
2023-04-14T01:51:41.025Z,209.55
2023-04-14T01:54:07.853Z,207.30
2023-04-14T01:56:34.189Z,206.50
2023-04-14T01:59:01.228Z,203.48
2023-04-14T02:01:27.904Z,201.57
2023-04-14T02:03:54.411Z,200.27
2023-04-14T02:06:20.812Z,197.13
2023-04-14T02:08:47.428Z,191.05
2023-04-14T02:11:13.797Z,191.00
2023-04-14T02:13:40.266Z,188.55
2023-04-14T02:16:06.695Z,186.20
2023-04-14T02:18:33.083Z,182.75
2023-04-14T02:20:59.557Z,186.43
2023-04-14T02:23:25.973Z,177.48
2023-04-14T02:25:52.388Z,175.40
2023-04-14T02:28:19.048Z,177.10
2023-04-14T02:30:45.433Z,181.00
2023-04-14T02:33:12.337Z,172.73
2023-04-14T02:35:38.673Z,174.70
2023-04-14T02:38:05.912Z,165.27
2023-04-14T02:40:32.767Z,167.98
2023-04-14T02:42:59.437Z,163.35
2023-04-14T02:45:26.470Z,165.32
2023-04-14T02:47:52.785Z,164.88
2023-04-14T02:50:19.623Z,155.52
2023-04-14T02:52:46.018Z,160.55
2023-04-14T02:55:12.480Z,154.93
2023-04-14T02:57:38.885Z,150.85
2023-04-14T03:00:05.324Z,149.80
2023-04-14T03:02:32.499Z,144.35
2023-04-14T03:04:58.839Z,142.73
2023-04-14T03:07:25.156Z,143.18
2023-04-14T03:09:51.541Z,144.88
2023-04-14T03:12:18.070Z,142.38
2023-04-14T03:14:44.424Z,137.18
2023-04-14T03:17:10.951Z,140.40
2023-04-14T03:19:37.888Z,135.10
2023-04-14T03:22:04.191Z,132.05
2023-04-14T03:24:30.735Z,129.43
2023-04-14T03:26:57.049Z,134.90
2023-04-14T03:29:24.259Z,130.88
2023-04-14T03:31:50.655Z,127.95
2023-04-14T03:34:17.394Z,126.72
2023-04-14T03:36:43.813Z,121.50
2023-04-14T03:39:11.508Z,125.57
2023-04-14T03:41:37.978Z,124.18
2023-04-14T03:44:04.801Z,121.57
2023-04-14T03:46:31.188Z,116.80
2023-04-14T03:48:57.988Z,115.38
2023-04-14T03:51:24.509Z,116.28
2023-04-14T03:53:51.119Z,113.60
2023-04-14T03:56:17.459Z,114.65
2023-04-14T03:58:44.119Z,110.40
2023-04-14T04:01:10.752Z,109.03
2023-04-14T04:03:37.341Z,106.57
2023-04-14T04:06:04.046Z,106.22
2023-04-14T04:08:30.962Z,106.45
2023-04-14T04:10:57.347Z,104.53
2023-04-14T04:13:23.690Z,100.75
2023-04-14T04:15:50.314Z,101.93
2023-04-14T04:18:17.270Z,102.95
2023-04-14T04:20:43.673Z,99.68
2023-04-14T04:23:10.049Z,95.43
2023-04-14T04:25:36.876Z,97.18
2023-04-14T04:28:03.759Z,97.63
2023-04-14T04:30:30.375Z,95.03
2023-04-14T04:32:56.852Z,92.63
2023-04-14T04:35:23.394Z,88.07
2023-04-14T04:37:49.959Z,92.18
2023-04-14T04:40:16.290Z,89.82
2023-04-14T04:42:42.590Z,87.35
2023-04-14T04:45:08.946Z,86.70
2023-04-14T04:47:35.521Z,86.85
2023-04-14T04:50:01.950Z,83.75
2023-04-14T04:52:28.803Z,81.50
2023-04-14T04:54:55.137Z,81.22
2023-04-14T04:57:21.444Z,82.50
2023-04-14T04:59:48.263Z,80.05
2023-04-14T05:02:14.663Z,77.32
2023-04-14T05:04:41.200Z,77.57
2023-04-14T05:07:08.131Z,76.15
2023-04-14T05:09:34.530Z,73.57
2023-04-14T05:12:01.028Z,69.32
2023-04-14T05:14:27.853Z,65.65
2023-04-14T05:16:54.388Z,66.03
2023-04-14T05:19:20.784Z,62.55
2023-04-14T05:21:47.586Z,58.78
2023-04-14T05:24:13.939Z,55.80
2023-04-14T05:29:09.631Z,236.63
2023-04-14T05:31:36.020Z,235.70
2023-04-14T05:34:03.294Z,209.13
2023-04-14T05:36:29.928Z,194.73
2023-04-14T05:38:56.453Z,185.48
2023-04-14T05:41:22.988Z,164.50
2023-04-14T05:43:49.995Z,153.43
2023-04-14T05:46:16.649Z,245.98
2023-04-14T05:48:43.013Z,305.77
2023-04-14T05:51:09.284Z,288.88
2023-04-14T05:53:35.608Z,269.05
2023-04-14T05:56:02.005Z,248.25
2023-04-14T05:58:28.681Z,236.85
2023-04-14T06:00:55.037Z,223.40
2023-04-14T06:03:21.721Z,206.60
2023-04-14T06:05:48.593Z,194.07
2023-04-14T06:08:15.662Z,183.55
2023-04-14T06:10:42.013Z,174.20
2023-04-14T06:13:08.520Z,169.88
2023-04-14T06:15:34.953Z,164.27
2023-04-14T06:18:01.722Z,154.82
2023-04-14T06:20:30.173Z,151.10
2023-04-14T06:22:58.406Z,147.90
2023-04-14T06:25:24.822Z,358.02
2023-04-14T06:27:51.857Z,366.10
2023-04-14T06:30:18.619Z,323.35
2023-04-14T06:32:45.201Z,306.73
2023-04-14T06:35:19.123Z,294.85
2023-04-14T06:37:52.364Z,275.80
2023-04-14T06:40:18.770Z,267.42
2023-04-14T06:42:45.208Z,259.33
2023-04-14T06:45:11.618Z,243.45
2023-04-14T06:47:38.064Z,232.95
2023-04-14T06:50:04.805Z,225.98
2023-04-14T06:52:31.137Z,211.48
2023-04-14T06:54:58.066Z,199.82
2023-04-14T06:57:24.363Z,199.77
2023-04-14T06:59:50.669Z,192.40
2023-04-14T07:02:17.066Z,184.23
2023-04-14T07:04:43.528Z,169.52
2023-04-14T07:07:10.000Z,252.95
2023-04-14T07:09:36.367Z,270.75
2023-04-14T07:12:03.390Z,303.35
2023-04-14T07:14:29.877Z,264.50
2023-04-14T07:16:56.615Z,249.88
2023-04-14T07:19:22.975Z,241.23
2023-04-14T07:21:49.806Z,230.80
2023-04-14T07:24:16.272Z,218.05
2023-04-14T07:26:42.620Z,211.15
2023-04-14T07:29:09.664Z,203.82
2023-04-14T07:31:36.189Z,187.27
2023-04-14T07:34:03.043Z,189.57
2023-04-14T07:36:29.560Z,178.95
2023-04-14T07:38:56.084Z,171.23
2023-04-14T07:41:22.684Z,166.07
2023-04-14T07:43:49.462Z,159.95
2023-04-14T07:46:16.220Z,148.38
2023-04-14T07:48:42.769Z,144.85
2023-04-14T07:51:09.624Z,138.75
2023-04-14T07:53:36.270Z,134.18
2023-04-14T07:56:02.588Z,128.10
2023-04-14T07:58:29.800Z,125.45
2023-04-14T08:00:56.814Z,122.72
2023-04-14T08:03:23.249Z,115.05
2023-04-14T08:05:49.870Z,112.78
2023-04-14T08:08:16.437Z,108.57
2023-04-14T08:10:42.815Z,104.97
2023-04-14T08:13:09.220Z,101.65
2023-04-14T08:15:35.597Z,245.40
2023-04-14T08:18:02.116Z,286.23
2023-04-14T08:20:28.640Z,265.50
2023-04-14T08:22:55.270Z,235.27
2023-04-14T08:25:21.843Z,217.88
2023-04-14T08:27:48.235Z,205.30
2023-04-14T08:30:14.538Z,194.60
2023-04-14T08:32:40.990Z,188.32
2023-04-14T08:35:38.834Z,181.50
2023-04-14T08:37:54.012Z,166.73
2023-04-14T08:40:20.403Z,164.23
2023-04-14T08:42:47.134Z,162.88
2023-04-14T08:45:13.515Z,149.05
2023-04-14T08:47:39.875Z,141.35
2023-04-14T08:50:06.295Z,136.82
2023-04-14T08:52:32.739Z,137.07
2023-04-14T08:54:59.679Z,126.72
2023-04-14T08:57:26.434Z,120.45
2023-04-14T08:59:52.927Z,117.28
2023-04-14T09:02:19.379Z,114.53
2023-04-14T09:04:45.909Z,109.32
2023-04-14T09:07:12.278Z,104.65
2023-04-14T09:09:38.966Z,142.82
2023-04-14T09:12:05.739Z,156.25
2023-04-14T09:14:32.087Z,141.30
2023-04-14T09:16:58.679Z,134.07
2023-04-14T09:19:25.238Z,130.32
2023-04-14T09:21:54.765Z,125.97
2023-04-14T09:24:21.773Z,117.60
2023-04-14T09:26:48.308Z,114.90
2023-04-14T09:29:15.274Z,107.72
2023-04-14T09:31:41.720Z,100.53
2023-04-14T09:34:08.697Z,98.05
2023-04-14T09:36:35.459Z,93.57
2023-04-14T09:39:01.971Z,89.88
2023-04-14T09:41:28.588Z,87.65
2023-04-14T09:43:54.900Z,84.55
2023-04-14T09:46:21.725Z,175.43
2023-04-14T09:48:48.592Z,337.10
2023-04-14T09:51:15.127Z,282.70
2023-04-14T09:53:41.416Z,253.98
2023-04-14T09:56:07.761Z,235.55
2023-04-14T09:58:34.065Z,233.07
2023-04-14T10:01:00.617Z,216.73
2023-04-14T10:03:27.509Z,217.13
2023-04-14T10:05:53.911Z,203.48
2023-04-14T10:08:20.278Z,193.75
2023-04-14T10:10:46.733Z,187.88
2023-04-14T10:13:13.105Z,183.40
2023-04-14T10:15:39.525Z,177.63
2023-04-14T10:18:06.455Z,167.65
2023-04-14T10:20:32.873Z,164.07
2023-04-14T10:22:59.193Z,162.57
2023-04-14T10:25:25.936Z,154.65
2023-04-14T10:27:52.241Z,152.25
2023-04-14T10:30:19.326Z,142.40
2023-04-14T10:32:45.796Z,135.68
2023-04-14T10:35:12.230Z,134.13
2023-04-14T10:37:38.600Z,133.02
2023-04-14T10:40:04.933Z,126.65
2023-04-14T10:42:31.373Z,121.28
2023-04-14T10:44:57.749Z,121.95
2023-04-14T10:47:24.429Z,117.28
2023-04-14T10:49:50.707Z,110.68
2023-04-14T10:52:17.356Z,107.65
2023-04-14T10:54:43.726Z,184.55
2023-04-14T10:57:10.146Z,212.88
2023-04-14T10:59:36.696Z,216.23
2023-04-14T11:02:03.168Z,190.88
2023-04-14T11:04:29.703Z,163.35
2023-04-14T11:06:56.477Z,141.38
2023-04-14T11:09:22.902Z,149.93
2023-04-14T11:11:49.293Z,297.00
2023-04-14T11:14:15.613Z,273.55
2023-04-14T11:16:47.656Z,242.23
2023-04-14T11:19:25.762Z,234.57
2023-04-14T11:21:52.102Z,227.30
2023-04-14T11:24:19.049Z,210.27
2023-04-14T11:26:45.475Z,202.90
2023-04-14T11:29:12.312Z,198.68
2023-04-14T11:31:38.569Z,188.57
2023-04-14T11:34:05.235Z,177.23
2023-04-14T11:36:31.769Z,179.82
2023-04-14T11:38:58.396Z,170.05
2023-04-14T11:41:24.995Z,163.85
2023-04-14T11:43:51.338Z,153.32
2023-04-14T11:46:18.524Z,151.57
2023-04-14T11:48:45.137Z,150.57
2023-04-14T11:51:11.519Z,141.93
2023-04-14T11:53:38.363Z,223.55
2023-04-14T11:56:04.681Z,339.73
2023-04-14T11:58:31.037Z,336.08
2023-04-14T12:00:57.409Z,300.27
2023-04-14T12:03:24.040Z,284.92
2023-04-14T12:05:50.477Z,267.30
2023-04-14T12:08:16.807Z,257.55
2023-04-14T12:10:43.305Z,244.75
2023-04-14T12:13:10.344Z,239.10
2023-04-14T12:15:37.021Z,223.00
2023-04-14T12:18:03.455Z,223.40
2023-04-14T12:20:29.915Z,221.50
2023-04-14T12:22:56.236Z,484.80
2023-04-14T12:25:22.717Z,451.38
2023-04-14T12:27:49.808Z,414.38
2023-04-14T12:30:16.410Z,392.52
2023-04-14T12:32:43.087Z,382.17
2023-04-14T12:35:09.750Z,366.15
2023-04-14T12:37:36.149Z,353.25
2023-04-14T12:40:02.769Z,341.10
2023-04-14T12:42:29.408Z,329.00
2023-04-14T12:44:56.369Z,320.23
2023-04-14T12:47:23.007Z,319.48
2023-04-14T12:49:50.055Z,299.40
2023-04-14T12:52:16.443Z,290.25
2023-04-14T12:54:42.851Z,281.88
2023-04-14T12:57:09.851Z,272.30
2023-04-14T12:59:36.333Z,255.52
2023-04-14T13:02:02.844Z,243.43
2023-04-14T13:04:29.275Z,240.82
2023-04-14T13:06:55.860Z,234.82
2023-04-14T13:09:22.174Z,219.05
2023-04-14T13:11:48.517Z,210.77
2023-04-14T13:14:15.360Z,205.20
2023-04-14T13:16:41.799Z,194.43
2023-04-14T13:19:09.316Z,191.43
2023-04-14T13:21:36.168Z,186.93
2023-04-14T13:24:02.514Z,176.02
2023-04-14T13:26:29.294Z,172.40
2023-04-14T13:28:56.160Z,167.05
2023-04-14T13:31:22.703Z,159.90
2023-04-14T13:33:49.128Z,150.45
2023-04-14T13:36:15.729Z,148.32
2023-04-14T13:38:42.175Z,142.65
2023-04-14T13:41:09.076Z,139.82
2023-04-14T13:43:35.454Z,129.20
2023-04-14T13:46:01.973Z,332.33
2023-04-14T13:48:28.732Z,376.15
2023-04-14T13:50:55.816Z,312.80
2023-04-14T13:53:22.476Z,297.40
2023-04-14T13:55:48.798Z,279.30
2023-04-14T13:58:15.199Z,266.25
2023-04-14T14:00:41.880Z,256.08
2023-04-14T14:03:08.462Z,241.63
2023-04-14T14:05:35.433Z,231.52
2023-04-14T14:08:01.838Z,225.07
2023-04-14T14:10:28.150Z,214.35
2023-04-14T14:12:54.464Z,214.10
2023-04-14T14:15:21.735Z,203.95
2023-04-14T14:17:48.108Z,202.18
2023-04-14T14:20:14.796Z,362.25
2023-04-14T14:22:41.124Z,435.92
2023-04-14T14:25:19.310Z,365.33
2023-04-14T14:27:47.205Z,343.45
2023-04-14T14:30:13.542Z,332.08
2023-04-14T14:32:39.931Z,318.33
2023-04-14T14:35:07.820Z,299.17
2023-04-14T14:37:34.187Z,287.48
2023-04-14T14:40:00.542Z,281.90
2023-04-14T14:42:27.285Z,269.20
2023-04-14T14:44:53.645Z,260.75
2023-04-14T14:47:20.748Z,413.63
2023-04-14T14:49:59.109Z,420.60
2023-04-14T14:54:59.938Z,374.13
2023-04-14T14:57:26.295Z,353.98
2023-04-14T14:59:52.927Z,337.92
2023-04-14T15:02:19.968Z,323.48
2023-04-14T15:04:46.582Z,315.35
2023-04-14T15:07:13.009Z,300.80
2023-04-14T15:09:39.626Z,294.95
2023-04-14T15:12:07.284Z,279.60
2023-04-14T15:14:34.090Z,268.92
2023-04-14T15:17:00.704Z,265.83
2023-04-14T15:19:27.336Z,257.40
2023-04-14T15:21:53.908Z,242.60
2023-04-14T15:24:20.880Z,238.23
2023-04-14T15:26:47.519Z,351.63
2023-04-14T15:29:14.021Z,494.77
2023-04-14T15:31:40.706Z,407.10
2023-04-14T15:34:07.446Z,384.58
2023-04-14T15:36:33.751Z,376.17
2023-04-14T15:39:00.147Z,359.50
2023-04-14T15:41:26.744Z,349.77
2023-04-14T15:43:53.502Z,340.40
2023-04-14T15:46:20.112Z,332.30
2023-04-14T15:48:46.546Z,316.52
2023-04-14T15:51:13.124Z,309.00
2023-04-14T15:53:39.581Z,295.80
2023-04-14T15:56:06.029Z,284.92
2023-04-14T15:58:32.427Z,273.77
2023-04-14T16:00:58.987Z,279.55
2023-04-14T16:03:25.726Z,283.05
2023-04-14T16:05:52.273Z,271.08
2023-04-14T16:08:19.234Z,262.92
2023-04-14T16:10:45.544Z,254.55
2023-04-14T16:13:11.878Z,250.48
2023-04-14T16:15:38.313Z,235.68
2023-04-14T16:18:04.660Z,234.48
2023-04-14T16:20:31.259Z,421.90
2023-04-14T16:22:57.908Z,474.15
2023-04-14T16:25:24.848Z,415.15
2023-04-14T16:27:51.951Z,390.10
2023-04-14T16:30:18.905Z,370.08
2023-04-14T16:32:45.326Z,359.48
2023-04-14T16:35:11.773Z,362.42
2023-04-14T16:37:38.996Z,597.88
2023-04-14T16:40:05.338Z,572.75
2023-04-14T16:42:32.084Z,596.60
2023-04-14T16:44:58.521Z,563.13
2023-04-14T16:47:25.021Z,518.53
2023-04-14T16:49:51.815Z,487.85
2023-04-14T16:52:18.182Z,461.30
2023-04-14T16:54:44.559Z,447.55
2023-04-14T16:57:10.882Z,551.55
2023-04-14T16:59:37.166Z,545.45
2023-04-14T17:02:03.708Z,528.53
2023-04-14T17:04:30.233Z,522.25
2023-04-14T17:06:56.851Z,507.55
2023-04-14T17:09:23.210Z,506.33
2023-04-14T17:11:49.597Z,487.75
2023-04-14T17:14:15.928Z,475.83
2023-04-14T17:16:42.459Z,471.77
2023-04-14T17:19:08.846Z,454.23
2023-04-14T17:21:35.467Z,450.88
2023-04-14T17:24:02.520Z,452.80
2023-04-14T17:26:29.116Z,436.92
2023-04-14T17:28:55.470Z,438.20
2023-04-14T17:31:21.979Z,422.17
2023-04-14T17:33:48.427Z,414.65
2023-04-14T17:36:14.814Z,422.08
2023-04-14T17:38:41.179Z,410.25
2023-04-14T17:41:07.823Z,406.40
2023-04-14T17:43:34.294Z,390.73
2023-04-14T17:46:00.663Z,396.58
2023-04-14T17:48:27.044Z,390.25
2023-04-14T17:50:53.417Z,375.58
2023-04-14T17:53:20.060Z,378.17
2023-04-14T17:55:46.451Z,374.55
2023-04-14T17:58:12.863Z,361.67
2023-04-14T18:00:39.306Z,354.48
2023-04-14T18:03:05.825Z,361.60
2023-04-14T18:05:32.817Z,345.17
2023-04-14T18:07:59.220Z,347.50
2023-04-14T18:10:26.020Z,339.10
2023-04-14T18:12:52.662Z,328.73
2023-04-14T18:15:19.610Z,328.45
2023-04-14T18:17:46.285Z,321.00
2023-04-14T18:20:12.589Z,317.65
2023-04-14T18:22:39.412Z,320.67
2023-04-14T18:25:06.161Z,313.55
2023-04-14T18:30:02.008Z,300.33
2023-04-14T18:32:28.556Z,291.58
2023-04-14T18:34:55.028Z,297.25
2023-04-14T18:37:21.403Z,289.33
2023-04-14T18:39:48.198Z,282.08
2023-04-14T18:42:14.520Z,283.23
2023-04-14T18:44:40.958Z,271.30
2023-04-14T18:47:07.747Z,266.52
2023-04-14T18:49:34.246Z,262.48
2023-04-14T18:52:01.312Z,265.27
2023-04-14T18:57:18.748Z,247.07
2023-04-14T18:59:45.130Z,243.43
2023-04-14T19:02:11.782Z,243.05
2023-04-14T19:04:38.773Z,241.07
2023-04-14T19:07:05.113Z,231.35
2023-04-14T19:09:32.190Z,225.63
2023-04-14T19:11:58.539Z,227.27
2023-04-14T19:14:25.094Z,220.35
2023-04-14T19:16:51.450Z,212.32
2023-04-14T19:19:17.853Z,208.48
2023-04-14T19:21:44.218Z,194.90
2023-04-14T19:24:10.632Z,201.15
2023-04-14T19:26:37.100Z,196.68
2023-04-14T19:29:03.784Z,191.68
2023-04-14T19:31:30.533Z,182.15
2023-04-14T19:33:56.972Z,186.27
2023-04-14T19:36:23.741Z,187.27
2023-04-14T19:38:50.302Z,184.32
2023-04-14T19:41:16.847Z,180.68
2023-04-14T19:43:43.171Z,177.50
2023-04-14T19:46:09.637Z,174.45
2023-04-14T19:48:37.085Z,174.02
2023-04-14T19:51:03.458Z,165.07
2023-04-14T19:53:29.906Z,164.70
2023-04-14T19:55:56.441Z,157.85
2023-04-14T19:58:23.073Z,158.00
2023-04-14T20:00:49.519Z,153.70
2023-04-14T20:03:15.978Z,155.52
2023-04-14T20:05:42.702Z,155.30
2023-04-14T20:08:09.054Z,150.05
2023-04-14T20:10:35.413Z,141.10
2023-04-14T20:13:03.114Z,144.13
2023-04-14T20:15:29.783Z,136.95
2023-04-14T20:17:56.188Z,136.10
2023-04-14T20:20:22.616Z,130.45
2023-04-14T20:22:49.567Z,128.05
2023-04-14T20:25:16.116Z,127.65
2023-04-14T20:27:42.508Z,126.35
2023-04-14T20:30:08.866Z,121.85
2023-04-14T20:32:35.248Z,119.13
2023-04-14T20:35:01.648Z,113.85
2023-04-14T20:37:28.017Z,114.45
2023-04-14T20:39:54.400Z,114.00
2023-04-14T20:42:20.748Z,106.65
2023-04-14T20:44:47.126Z,105.72
2023-04-14T20:47:13.554Z,103.05
2023-04-14T20:49:40.441Z,102.75
2023-04-14T20:52:07.031Z,103.65
2023-04-14T20:54:33.384Z,97.88
2023-04-14T20:56:59.757Z,95.53
2023-04-14T20:59:26.205Z,95.32
2023-04-14T21:01:52.602Z,95.60
2023-04-14T21:04:19.203Z,93.65
2023-04-14T21:06:45.659Z,92.47
2023-04-14T21:09:12.082Z,89.50
2023-04-14T21:11:38.565Z,88.90
2023-04-14T21:15:29.451Z,89.20
2023-04-14T21:16:51.259Z,84.28
2023-04-14T21:19:17.958Z,84.45
2023-04-14T21:21:44.382Z,81.72
2023-04-14T21:24:10.891Z,82.00
2023-04-14T21:26:37.233Z,81.05
2023-04-14T21:29:03.892Z,79.13
2023-04-14T21:31:30.644Z,76.10
2023-04-14T21:33:57.140Z,78.50
2023-04-14T21:36:23.480Z,76.47
2023-04-14T21:38:49.829Z,76.60
2023-04-14T21:41:16.173Z,70.97
2023-04-14T21:43:42.740Z,73.28
2023-04-14T21:46:09.220Z,74.45
2023-04-14T21:48:35.577Z,70.47
2023-04-14T21:51:01.913Z,71.38
2023-04-14T21:53:28.272Z,69.20
2023-04-14T21:56:08.758Z,69.93
2023-04-14T21:58:37.191Z,68.97
2023-04-14T22:01:03.693Z,66.32
2023-04-14T22:03:30.674Z,65.97
2023-04-14T22:05:57.582Z,64.53
2023-04-14T22:08:23.913Z,67.18
2023-04-14T22:10:50.305Z,66.20
2023-04-14T22:13:17.144Z,64.45
2023-04-14T22:15:43.725Z,65.00
2023-04-14T22:18:10.087Z,64.63
2023-04-14T22:20:36.486Z,62.10
2023-04-14T22:23:02.808Z,61.10
2023-04-14T22:25:29.539Z,62.88
2023-04-14T22:27:55.914Z,62.65
2023-04-14T22:30:22.336Z,60.15
2023-04-14T22:32:49.214Z,59.53
2023-04-14T22:35:15.649Z,58.00
2023-04-14T22:37:42.011Z,56.65
2023-04-14T22:40:08.809Z,57.05
2023-04-14T22:42:35.364Z,58.92
2023-04-14T22:45:02.209Z,55.70
2023-04-14T22:47:28.980Z,59.00
2023-04-14T22:49:55.362Z,55.13
2023-04-14T22:52:21.718Z,56.05
2023-04-14T22:54:48.489Z,55.75
2023-04-14T22:57:15.352Z,55.50
2023-04-14T22:59:41.941Z,54.80
2023-04-14T23:02:08.362Z,54.45
2023-04-14T23:04:34.904Z,56.00
2023-04-14T23:07:02.002Z,51.67
2023-04-14T23:09:28.739Z,53.42
2023-04-14T23:11:55.538Z,52.28
2023-04-14T23:14:22.201Z,50.88
2023-04-14T23:16:48.689Z,51.10
2023-04-14T23:19:15.308Z,52.45
2023-04-14T23:21:41.655Z,51.60
2023-04-14T23:24:08.268Z,49.85
2023-04-14T23:26:34.779Z,51.78
2023-04-14T23:29:01.462Z,50.22
2023-04-14T23:31:28.183Z,49.50
2023-04-14T23:33:54.801Z,48.88
2023-04-14T23:36:21.119Z,47.08
2023-04-14T23:38:47.559Z,50.60
2023-04-14T23:41:14.010Z,47.40
2023-04-14T23:43:40.337Z,50.63
2023-04-14T23:46:07.457Z,49.10
2023-04-14T23:48:33.782Z,46.58
2023-04-14T23:51:14.710Z,48.35
2023-04-14T23:53:46.585Z,45.30
2023-04-14T23:56:12.887Z,48.63
2023-04-14T23:58:39.408Z,48.25
